Panama City Beach, Florida
Current Conditions -  °F | °C
As of 9:53 PM on Sunday 25 Jan 2015 (Local Time) from KECP Reporting Station
Clear Clear  
Wind Chill: 60°   Ceiling: Unl
Heat Index: 60°   Visibility: NA
Dew Point: 48°   Wind: 16mph
Humidity: 64%   Direction: 240°WSW
Pressure: 29.86"   Gusts: 21mph
Location:  30.21°N, 85.85°W
Report Text: KECP 260353Z AUTO 24014G18KT CLR 16/09 A2986 RMK AO2 SLP122 T01560089 $
Loading
Personal Weather Stations






























Interactive Weather Map New forecast layout! Learn more

10-Day Weather Forecast

Advertisements
Track Severe Weather on mobile